Huvudsida
METAR-TAF:

METAR-TAF

Flygplatser :

Selawik, Alaska, USA

latitud: 66-37N, longitud: 160-00W, höjd: 8 m

Aktuellt väderrapport

Denna rapport gjordes för 44 minuter sedan, klockan 16:56 UTC
Vind 11 kt från väst/sydväst i byarna ända upp till 17 kt
Temperatur 9°C
Fuktighet 71%
Tryck 1025 hPa
Sikt: 16.1 km
Klar himmel

METAR: PASK 141656Z AUTO 25011G17KT 10SM CLR 09/04 A3027 RMK AO2 SLP248 T00890044

Tid: 09:40 (17:40 UTC)


TAF: saknas

Aktuella väderrapporter och prognoser från 4000 flygplatser (METAR- och TAF-rapporter).

De tillgängliga stationerna syns som gula och röda prickar på kartan.

För musen över prickarna för att se namnen på stationerna.

Klicka sedan för att få väderrapporter och prognoser.

För att ändra kartan: Klicka på de gröna knapparna med ett svart kors på för att zooma in; den gröna knappen med ett streck på för att zooma ut; eller på de gröna pilarna för angränsande kartor.


METAR-TAF: